Time;durP1;ratioP1;P1;durP2;ratioP2;P2;SDS_P1;SDS_P2;PMS_P1;PMS_P2;Temp;Humidity;BMP_temperature;BMP_pressure;BME280_temperature;BME280_humidity;BME280_pressure;Samples;Min_cycle;Max_cycle;Signal;HPM_P1;HPM_P2
2021/03/04 00:01:49;;;;;;;8.00;4.40;;;3.90;53.50;;;;;;5056396;29;20044;-64
2021/03/04 00:04:21;;;;;;;5.35;3.70;;;3.90;53.00;;;;;;5058247;29;20036;-64
2021/03/04 00:06:53;;;;;;;6.00;3.88;;;3.90;53.30;;;;;;5056982;29;20068;-64
2021/03/04 00:09:25;;;;;;;4.97;3.80;;;3.90;53.50;;;;;;5056924;29;20391;-65
2021/03/04 00:11:56;;;;;;;4.47;3.55;;;3.80;54.30;;;;;;5057370;29;20141;-65
2021/03/04 00:14:28;;;;;;;5.68;4.22;;;3.80;55.00;;;;;;5057682;29;20186;-66
2021/03/04 00:17:00;;;;;;;6.32;4.32;;;3.90;54.50;;;;;;5056271;29;20132;-66
2021/03/04 00:19:32;;;;;;;6.13;4.03;;;3.90;53.20;;;;;;5056985;29;20040;-65
2021/03/04 00:22:03;;;;;;;6.22;3.95;;;3.80;53.70;;;;;;5055409;29;20151;-65
2021/03/04 00:24:35;;;;;;;6.53;4.30;;;3.90;53.30;;;;;;5058776;29;20045;-65
2021/03/04 00:27:06;;;;;;;5.85;3.90;;;3.90;53.70;;;;;;5055021;29;20073;-64
2021/03/04 00:29:38;;;;;;;5.35;4.10;;;3.90;54.00;;;;;;5056761;29;20168;-66
2021/03/04 00:32:09;;;;;;;8.10;4.43;;;3.80;53.20;;;;;;5039397;29;20044;-65
2021/03/04 00:34:41;;;;;;;5.15;4.00;;;3.80;52.70;;;;;;5057314;29;20049;-64
2021/03/04 00:37:12;;;;;;;6.40;4.30;;;3.80;53.40;;;;;;5057171;29;20044;-65
2021/03/04 00:39:44;;;;;;;7.35;4.68;;;3.80;54.40;;;;;;5057361;29;20045;-66
2021/03/04 00:42:15;;;;;;;5.30;4.03;;;3.70;55.70;;;;;;5056494;29;20053;-65
2021/03/04 00:44:47;;;;;;;7.53;4.80;;;3.70;54.80;;;;;;5054318;29;20041;-65
2021/03/04 00:47:18;;;;;;;5.50;4.20;;;3.60;55.10;;;;;;5039601;29;20509;-64
2021/03/04 00:49:50;;;;;;;5.88;4.35;;;3.60;55.10;;;;;;5056867;29;20059;-66
2021/03/04 00:52:21;;;;;;;6.55;4.60;;;3.60;55.60;;;;;;5038873;29;20135;-65
2021/03/04 00:54:53;;;;;;;7.22;4.43;;;3.70;54.00;;;;;;5057719;29;20195;-66
2021/03/04 00:57:24;;;;;;;6.53;4.32;;;3.70;53.60;;;;;;5055762;29;20672;-65
2021/03/04 00:59:56;;;;;;;8.88;4.63;;;3.70;54.30;;;;;;5057479;29;20072;-65
2021/03/04 01:02:27;;;;;;;5.47;4.20;;;3.70;56.90;;;;;;5056961;29;20415;-65
2021/03/04 01:04:59;;;;;;;6.65;4.35;;;3.70;55.40;;;;;;5055811;29;20124;-66
2021/03/04 01:07:32;;;;;;;5.57;3.95;;;3.70;55.60;;;;;;5056752;29;20135;-65
2021/03/04 01:10:14;;;;;;;5.10;3.97;;;3.60;54.10;;;;;;5056507;29;20116;-65
2021/03/04 01:12:45;;;;;;;6.22;4.25;;;3.60;53.20;;;;;;5056772;29;20073;-65
2021/03/04 01:15:19;;;;;;;6.18;4.38;;;3.60;53.80;;;;;;5055512;29;20044;-65
2021/03/04 01:17:51;;;;;;;5.47;4.38;;;3.60;55.20;;;;;;5056586;29;20053;-65
2021/03/04 01:20:24;;;;;;;6.68;3.80;;;3.60;54.40;;;;;;5054424;29;20037;-65
2021/03/04 01:22:55;;;;;;;4.93;3.70;;;3.60;53.60;;;;;;5056058;29;20048;-65
2021/03/04 01:25:26;;;;;;;5.13;3.67;;;3.70;53.50;;;;;;5055495;29;20155;-65
2021/03/04 01:27:58;;;;;;;5.50;3.90;;;3.70;53.80;;;;;;5056350;29;20144;-64
2021/03/04 01:30:32;;;;;;;6.45;3.72;;;3.60;55.00;;;;;;5055948;29;20140;-64
2021/03/04 01:33:18;;;;;;;5.68;3.95;;;3.70;54.40;;;;;;5056438;29;20056;-65
2021/03/04 01:35:50;;;;;;;5.03;4.10;;;3.70;53.40;;;;;;5055150;29;20100;-64
2021/03/04 01:38:21;;;;;;;5.55;3.90;;;3.70;53.30;;;;;;5056381;29;20048;-65
2021/03/04 01:40:52;;;;;;;5.05;3.72;;;3.70;54.40;;;;;;5054691;29;20037;-64
2021/03/04 01:43:24;;;;;;;4.80;3.65;;;3.70;53.90;;;;;;5056670;29;20136;-65
2021/03/04 01:45:55;;;;;;;5.55;4.00;;;3.70;53.70;;;;;;5055355;29;20610;-64
2021/03/04 01:48:27;;;;;;;5.68;3.78;;;3.70;52.60;;;;;;5056198;29;20136;-66
2021/03/04 01:50:59;;;;;;;5.32;4.05;;;3.80;52.80;;;;;;5054958;29;20089;-65
2021/03/04 01:53:32;;;;;;;6.15;4.00;;;3.80;52.70;;;;;;5055361;29;20149;-64
2021/03/04 01:56:05;;;;;;;5.75;4.13;;;3.80;53.30;;;;;;5055592;29;20064;-65
2021/03/04 01:58:36;;;;;;;6.68;3.53;;;3.70;55.00;;;;;;5055997;29;20147;-65
2021/03/04 02:01:08;;;;;;;5.43;3.67;;;3.70;53.80;;;;;;5038342;29;20037;-66
2021/03/04 02:03:40;;;;;;;6.63;4.13;;;3.70;53.10;;;;;;5055840;29;20131;-65
2021/03/04 02:06:12;;;;;;;5.35;3.85;;;3.70;52.70;;;;;;5055064;29;20511;-65
2021/03/04 02:08:50;;;;;;;5.65;3.67;;;3.80;53.20;;;;;;5052696;29;20080;-65
2021/03/04 02:11:37;;;;;;;5.75;3.80;;;3.80;52.70;;;;;;5053355;29;20107;-65
2021/03/04 02:14:13;;;;;;;4.90;3.75;;;3.90;53.60;;;;;;5055015;29;20123;-66
2021/03/04 02:17:05;;;;;;;4.93;3.65;;;3.90;53.70;;;;;;5055405;29;20036;-65
2021/03/04 02:19:48;;;;;;;5.15;3.88;;;3.90;52.30;;;;;;5055969;29;20071;-65
2021/03/04 02:22:44;;;;;;;5.68;3.67;;;3.90;53.80;;;;;;5055075;29;20096;-65
2021/03/04 02:26:03;;;;;;;6.30;4.25;;;3.80;54.10;;;;;;5051500;29;20100;-65
2021/03/04 02:28:35;;;;;;;5.13;3.50;;;3.90;53.60;;;;;;5040964;29;20064;-64
2021/03/04 02:31:08;;;;;;;5.05;3.60;;;3.90;52.70;;;;;;5054669;29;20128;-65
2021/03/04 02:33:43;;;;;;;4.80;3.50;;;4.00;52.80;;;;;;5055559;29;20072;-65
2021/03/04 02:36:17;;;;;;;5.80;3.95;;;4.00;51.50;;;;;;5054612;29;20176;-65
2021/03/04 02:38:49;;;;;;;5.95;3.97;;;4.10;52.50;;;;;;5055753;29;20195;-64
2021/03/04 02:41:20;;;;;;;5.32;3.40;;;4.10;52.70;;;;;;5054582;29;20163;-65
2021/03/04 02:43:52;;;;;;;5.28;3.40;;;4.10;52.60;;;;;;5055106;29;20052;-65
2021/03/04 02:46:24;;;;;;;5.35;3.60;;;4.10;52.40;;;;;;5055091;29;20472;-65
2021/03/04 02:48:56;;;;;;;4.85;3.42;;;4.10;51.90;;;;;;5055255;29;20120;-65
2021/03/04 02:51:29;;;;;;;4.93;3.60;;;4.10;53.10;;;;;;5054557;29;20128;-65
2021/03/04 02:54:01;;;;;;;5.68;4.00;;;4.20;51.90;;;;;;5022763;29;20222;-66
2021/03/04 02:56:36;;;;;;;5.45;3.67;;;4.20;52.90;;;;;;5055528;29;20418;-64
2021/03/04 02:59:08;;;;;;;4.70;3.63;;;4.10;52.20;;;;;;5055069;29;20052;-65
2021/03/04 03:01:40;;;;;;;5.63;3.95;;;4.10;52.00;;;;;;5054194;29;20079;-64
2021/03/04 03:04:12;;;;;;;7.18;3.35;;;4.20;52.40;;;;;;5055241;29;20743;-65
2021/03/04 03:06:44;;;;;;;4.15;3.22;;;4.20;53.70;;;;;;5054378;29;20146;-65
2021/03/04 03:09:16;;;;;;;5.30;3.60;;;4.20;53.00;;;;;;5055995;29;20373;-66
2021/03/04 03:11:48;;;;;;;5.60;3.70;;;4.20;52.40;;;;;;5054252;29;20051;-65
2021/03/04 03:14:20;;;;;;;5.93;4.20;;;4.20;52.50;;;;;;5054648;29;20100;-65
2021/03/04 03:16:52;;;;;;;4.50;3.65;;;4.20;53.50;;;;;;5054070;29;20048;-65
2021/03/04 03:19:24;;;;;;;4.97;3.40;;;4.20;53.20;;;;;;5055543;29;20163;-65
2021/03/04 03:21:55;;;;;;;6.00;3.70;;;4.20;52.90;;;;;;5050470;29;20218;-65
2021/03/04 03:24:27;;;;;;;5.90;3.72;;;4.20;52.30;;;;;;5055524;29;20105;-65
2021/03/04 03:26:59;;;;;;;4.60;3.55;;;4.20;52.80;;;;;;5054316;29;20057;-65
2021/03/04 03:29:30;;;;;;;5.78;3.72;;;4.20;53.50;;;;;;5038187;29;20135;-65
2021/03/04 03:32:02;;;;;;;6.57;4.10;;;4.20;54.50;;;;;;5053894;29;20108;-65
2021/03/04 03:34:34;;;;;;;5.82;3.88;;;4.20;56.20;;;;;;5055463;29;20104;-66
2021/03/04 03:37:06;;;;;;;5.68;3.92;;;4.00;55.60;;;;;;5054049;29;20422;-66
2021/03/04 03:39:39;;;;;;;6.32;3.78;;;3.90;56.20;;;;;;5055481;29;20044;-65
2021/03/04 03:42:11;;;;;;;6.10;3.88;;;3.90;57.10;;;;;;5053916;29;20053;-65
2021/03/04 03:44:43;;;;;;;5.45;3.63;;;3.90;58.00;;;;;;5053783;29;20051;-66
2021/03/04 03:47:16;;;;;;;5.47;3.60;;;3.90;57.80;;;;;;5051408;29;20064;-66
2021/03/04 03:49:49;;;;;;;5.95;4.03;;;3.90;59.10;;;;;;5054558;29;20047;-64
2021/03/04 03:52:20;;;;;;;5.55;3.75;;;4.00;58.50;;;;;;5053635;29;20148;-65
2021/03/04 03:54:53;;;;;;;4.47;3.70;;;4.00;57.00;;;;;;5054905;29;20096;-65
2021/03/04 03:57:28;;;;;;;6.72;3.78;;;4.00;56.20;;;;;;5056337;29;20155;-65
2021/03/04 04:00:01;;;;;;;4.95;3.30;;;3.90;57.10;;;;;;5026760;29;20574;-65
2021/03/04 04:02:38;;;;;;;5.68;3.53;;;3.90;56.50;;;;;;5056963;29;20089;-65
2021/03/04 04:05:11;;;;;;;4.50;3.28;;;3.90;57.50;;;;;;5040893;29;20044;-65
2021/03/04 04:07:43;;;;;;;4.70;3.50;;;3.90;56.50;;;;;;5055082;29;20041;-66
2021/03/04 04:10:14;;;;;;;6.40;4.13;;;3.90;55.80;;;;;;5056403;29;20049;-66
2021/03/04 04:12:45;;;;;;;4.40;3.10;;;4.00;55.30;;;;;;5057809;29;20112;-66
2021/03/04 04:15:18;;;;;;;4.47;3.05;;;4.00;56.40;;;;;;5056419;29;20119;-65
2021/03/04 04:17:50;;;;;;;5.25;3.28;;;4.00;56.20;;;;;;5039883;29;20052;-66
2021/03/04 04:20:23;;;;;;;6.25;3.90;;;4.00;56.10;;;;;;5057735;29;20052;-65
2021/03/04 04:22:56;;;;;;;5.75;3.90;;;3.90;57.50;;;;;;5055517;29;20048;-65
2021/03/04 04:25:28;;;;;;;4.72;3.40;;;3.80;57.40;;;;;;5053529;29;20127;-65
2021/03/04 04:28:00;;;;;;;5.75;4.00;;;3.80;57.20;;;;;;5056602;29;20052;-65
2021/03/04 04:30:31;;;;;;;3.60;3.10;;;3.90;57.00;;;;;;5056295;29;20522;-64
2021/03/04 04:33:03;;;;;;;4.60;3.30;;;3.90;56.40;;;;;;5058314;29;20546;-65
2021/03/04 04:35:34;;;;;;;5.55;3.20;;;4.00;56.60;;;;;;5058596;29;20064;-64
2021/03/04 04:38:06;;;;;;;5.22;3.67;;;4.00;56.40;;;;;;5058530;29;20060;-65
2021/03/04 04:40:38;;;;;;;4.60;3.22;;;4.00;57.00;;;;;;5057865;29;20124;-65
2021/03/04 04:43:10;;;;;;;6.10;3.95;;;4.00;56.90;;;;;;5058048;29;20127;-65
2021/03/04 04:45:41;;;;;;;6.50;3.50;;;4.00;56.90;;;;;;5057192;29;20463;-65
2021/03/04 04:48:13;;;;;;;6.50;2.80;;;4.00;56.90;;;;;;5058816;29;20051;-65
2021/03/04 04:50:45;;;;;;;5.43;2.92;;;4.10;58.30;;;;;;5057581;29;20738;-65
2021/03/04 04:53:16;;;;;;;7.13;4.10;;;4.10;59.10;;;;;;5056194;29;20076;-66
2021/03/04 04:55:48;;;;;;;5.93;3.30;;;4.10;60.00;;;;;;5057930;29;20044;-65
2021/03/04 04:58:19;;;;;;;5.70;3.80;;;4.20;60.60;;;;;;5057859;29;20123;-65
2021/03/04 05:00:51;;;;;;;4.15;3.22;;;4.20;59.60;;;;;;5058423;29;20049;-66
2021/03/04 05:03:22;;;;;;;4.45;3.13;;;4.10;60.50;;;;;;5040735;29;20088;-65
2021/03/04 05:05:54;;;;;;;4.80;3.47;;;4.20;59.10;;;;;;5057740;29;20044;-65
2021/03/04 05:08:25;;;;;;;7.03;3.72;;;4.20;58.90;;;;;;5057362;29;20080;-65
2021/03/04 05:10:57;;;;;;;4.57;3.38;;;4.20;58.90;;;;;;5057785;29;20105;-67
2021/03/04 05:13:28;;;;;;;5.43;3.20;;;4.10;59.70;;;;;;5057368;29;20123;-65
2021/03/04 05:15:59;;;;;;;4.65;3.20;;;4.10;60.10;;;;;;5025217;29;20055;-65
2021/03/04 05:18:31;;;;;;;9.40;3.50;;;4.00;60.20;;;;;;5057851;29;20032;-65
2021/03/04 05:21:03;;;;;;;5.43;3.42;;;3.90;60.50;;;;;;5057155;29;20140;-65
2021/03/04 05:23:35;;;;;;;7.07;3.22;;;3.90;59.50;;;;;;5057935;29;20052;-65
2021/03/04 05:26:06;;;;;;;5.90;3.60;;;3.90;59.50;;;;;;5040881;29;20052;-65
2021/03/04 05:28:37;;;;;;;6.03;3.50;;;3.90;57.70;;;;;;5055427;29;20135;-66
2021/03/04 05:31:09;;;;;;;5.05;3.50;;;4.00;59.40;;;;;;5057259;29;20503;-65
2021/03/04 05:33:41;;;;;;;5.82;3.20;;;4.00;58.70;;;;;;5041363;29;20521;-65
2021/03/04 05:36:12;;;;;;;7.22;3.50;;;4.00;58.40;;;;;;5057484;29;20064;-65
2021/03/04 05:38:44;;;;;;;5.82;3.80;;;4.10;58.60;;;;;;5057827;29;20076;-65
2021/03/04 05:41:20;;;;;;;4.60;3.58;;;4.10;58.80;;;;;;5056268;29;20064;-65
2021/03/04 05:43:51;;;;;;;5.50;3.50;;;4.10;59.00;;;;;;5058099;29;20064;-66
2021/03/04 05:46:23;;;;;;;6.25;4.00;;;4.00;59.80;;;;;;5053120;29;20052;-64
2021/03/04 05:48:57;;;;;;;5.35;3.75;;;4.00;59.40;;;;;;5055950;29;20120;-65
2021/03/04 05:51:35;;;;;;;4.93;3.30;;;4.00;60.00;;;;;;5055041;29;20052;-66
2021/03/04 05:54:10;;;;;;;6.22;3.83;;;4.00;60.40;;;;;;5056972;29;20631;-66
2021/03/04 05:56:43;;;;;;;6.22;4.03;;;4.00;59.50;;;;;;5055885;29;20105;-67
2021/03/04 05:59:15;;;;;;;6.60;4.18;;;4.00;59.30;;;;;;5055888;29;20724;-65
2021/03/04 06:01:46;;;;;;;7.80;4.13;;;4.00;59.50;;;;;;5056810;29;20041;-66
2021/03/04 06:04:18;;;;;;;7.88;3.40;;;3.90;59.50;;;;;;5056756;29;20943;-65
2021/03/04 06:06:50;;;;;;;5.30;3.40;;;3.90;61.10;;;;;;5053333;29;20079;-65
2021/03/04 06:09:21;;;;;;;9.63;6.30;;;3.90;61.20;;;;;;5057047;29;20053;-65
2021/03/04 06:11:52;;;;;;;9.27;5.07;;;3.90;59.70;;;;;;5055062;29;20041;-67
2021/03/04 06:14:24;;;;;;;8.40;3.67;;;3.80;60.20;;;;;;5056315;29;20037;-67
2021/03/04 06:16:55;;;;;;;9.70;5.47;;;3.80;58.30;;;;;;5054617;29;20052;-66
2021/03/04 06:19:27;;;;;;;9.38;5.45;;;3.90;60.40;;;;;;5056773;29;20040;-67
2021/03/04 06:22:03;;;;;;;9.38;5.60;;;3.80;61.10;;;;;;5039526;29;20056;-67
2021/03/04 06:24:35;;;;;;;10.68;5.03;;;3.90;61.40;;;;;;5053511;29;20808;-67
2021/03/04 06:27:06;;;;;;;8.48;5.32;;;3.70;63.00;;;;;;5037602;29;20048;-66
2021/03/04 06:29:38;;;;;;;10.68;5.13;;;3.70;61.70;;;;;;5056217;29;20119;-66
2021/03/04 06:32:10;;;;;;;10.57;5.10;;;3.80;61.80;;;;;;5053106;29;20127;-67
2021/03/04 06:34:41;;;;;;;10.13;5.15;;;3.80;62.30;;;;;;5053853;29;20064;-68
2021/03/04 06:37:13;;;;;;;9.45;5.82;;;3.80;61.60;;;;;;5052897;29;20116;-65
2021/03/04 06:39:46;;;;;;;7.68;4.35;;;3.90;61.80;;;;;;5055542;29;20068;-66
2021/03/04 06:42:18;;;;;;;7.40;4.50;;;3.90;62.00;;;;;;5051116;29;20058;-66
2021/03/04 06:44:55;;;;;;;9.05;4.40;;;3.90;61.00;;;;;;5054170;29;20048;-66
2021/03/04 06:47:28;;;;;;;8.70;3.88;;;3.80;61.00;;;;;;5054889;29;20076;-66
2021/03/04 06:50:00;;;;;;;6.60;3.90;;;3.90;60.10;;;;;;5056451;29;20056;-66
2021/03/04 06:52:44;;;;;;;10.45;4.18;;;3.90;58.90;;;;;;5055135;29;20056;-65
2021/03/04 06:55:16;;;;;;;9.27;4.07;;;4.00;59.20;;;;;;5054582;29;20862;-66
2021/03/04 06:57:58;;;;;;;8.50;3.65;;;4.00;59.70;;;;;;5056064;29;20734;-65
2021/03/04 07:00:30;;;;;;;7.10;3.63;;;4.00;60.20;;;;;;5055916;29;20050;-67
2021/03/04 07:03:01;;;;;;;7.22;3.92;;;4.00;59.70;;;;;;5055503;29;20047;-65
2021/03/04 07:05:33;;;;;;;7.78;4.20;;;4.10;59.30;;;;;;5055584;29;20095;-66
2021/03/04 07:08:06;;;;;;;8.30;3.67;;;4.10;59.80;;;;;;5055933;29;20129;-66
2021/03/04 07:10:37;;;;;;;8.05;3.47;;;4.10;60.20;;;;;;5056264;29;20055;-66
2021/03/04 07:13:09;;;;;;;7.05;3.90;;;4.20;62.30;;;;;;5054769;29;20048;-66
2021/03/04 07:15:40;;;;;;;7.05;3.53;;;4.20;62.00;;;;;;5055531;29;20068;-67
2021/03/04 07:18:12;;;;;;;5.15;3.17;;;4.20;62.20;;;;;;5056478;29;20479;-67
2021/03/04 07:20:45;;;;;;;5.15;3.05;;;4.30;61.30;;;;;;5055218;29;20149;-66
2021/03/04 07:23:17;;;;;;;7.78;4.00;;;4.30;59.90;;;;;;5056017;29;20064;-67
2021/03/04 07:25:51;;;;;;;7.53;3.40;;;4.30;61.40;;;;;;5055752;29;20132;-67
2021/03/04 07:28:24;;;;;;;5.45;3.15;;;4.40;61.00;;;;;;5055150;29;20139;-67
2021/03/04 07:30:56;;;;;;;9.95;4.18;;;4.40;59.40;;;;;;5055578;29;20044;-67
2021/03/04 07:33:29;;;;;;;8.75;4.03;;;4.50;60.00;;;;;;5058839;29;20132;-66
2021/03/04 07:36:03;;;;;;;7.25;3.67;;;4.50;60.20;;;;;;5059725;29;20462;-68
2021/03/04 07:38:36;;;;;;;7.45;4.57;;;4.60;60.40;;;;;;5059872;29;20056;-67
2021/03/04 07:41:10;;;;;;;8.45;4.90;;;4.60;61.60;;;;;;5059256;29;20060;-66
2021/03/04 07:43:55;;;;;;;10.02;4.38;;;4.60;60.50;;;;;;5042931;29;20462;-67
2021/03/04 07:46:32;;;;;;;7.75;4.32;;;4.60;60.30;;;;;;5059249;29;20113;-68
2021/03/04 07:49:08;;;;;;;9.07;4.22;;;4.70;60.20;;;;;;5057514;29;20051;-67
2021/03/04 07:51:41;;;;;;;8.05;4.22;;;4.80;60.70;;;;;;5058413;29;20063;-67
2021/03/04 07:54:13;;;;;;;8.07;3.97;;;4.80;60.90;;;;;;5059490;29;20523;-66
2021/03/04 07:56:45;;;;;;;10.02;4.20;;;4.90;60.70;;;;;;5059322;29;20063;-69
2021/03/04 07:59:16;;;;;;;10.93;4.18;;;5.00;61.30;;;;;;5059223;29;20467;-66
2021/03/04 08:01:57;;;;;;;7.75;3.53;;;5.00;60.40;;;;;;5057334;29;20137;-66
2021/03/04 08:04:34;;;;;;;9.07;5.03;;;5.10;60.40;;;;;;5056738;29;20072;-67
2021/03/04 08:07:06;;;;;;;8.52;4.25;;;5.20;58.90;;;;;;5058765;29;20074;-66
2021/03/04 08:09:37;;;;;;;7.18;4.45;;;5.30;61.10;;;;;;5058525;29;20049;-67
2021/03/04 08:12:14;;;;;;;6.70;3.78;;;5.30;57.60;;;;;;5058441;29;20060;-67
2021/03/04 08:14:56;;;;;;;6.07;3.35;;;5.40;58.90;;;;;;5059295;29;20039;-67
2021/03/04 08:17:35;;;;;;;4.68;2.80;;;5.40;61.30;;;;;;5058390;29;20049;-67
2021/03/04 08:20:18;;;;;;;6.53;4.00;;;5.50;60.40;;;;;;5058569;29;20045;-67
2021/03/04 08:22:55;;;;;;;12.05;6.47;;;5.60;59.70;;;;;;5059227;29;20464;-66
2021/03/04 08:25:29;;;;;;;11.15;5.05;;;5.70;57.20;;;;;;5058031;29;20048;-66
2021/03/04 08:28:01;;;;;;;9.45;4.22;;;5.80;57.00;;;;;;5058359;29;20054;-66
2021/03/04 08:30:43;;;;;;;10.93;4.60;;;5.80;55.60;;;;;;5058108;29;20056;-67
2021/03/04 08:33:15;;;;;;;11.90;5.78;;;5.90;55.90;;;;;;5058795;29;20060;-67
2021/03/04 08:35:48;;;;;;;11.48;5.95;;;5.90;56.90;;;;;;5056250;29;20092;-66
2021/03/04 08:38:21;;;;;;;9.23;5.40;;;5.90;57.50;;;;;;5058430;29;20044;-66
2021/03/04 08:40:55;;;;;;;9.80;5.28;;;5.90;56.50;;;;;;5055264;29;20048;-67
2021/03/04 08:43:28;;;;;;;12.23;5.97;;;6.00;55.90;;;;;;5057659;29;20049;-66
2021/03/04 08:46:04;;;;;;;10.60;5.53;;;6.10;56.00;;;;;;5040080;29;20041;-67
2021/03/04 08:48:43;;;;;;;8.73;5.05;;;6.20;55.40;;;;;;5057671;29;20060;-66
2021/03/04 08:51:15;;;;;;;10.57;6.63;;;6.30;56.10;;;;;;5057663;29;20125;-67
2021/03/04 08:53:47;;;;;;;13.07;7.20;;;6.40;54.70;;;;;;5058846;29;20053;-68
2021/03/04 08:56:19;;;;;;;9.40;5.97;;;6.50;55.80;;;;;;5058094;29;20427;-67
2021/03/04 08:58:50;;;;;;;10.15;5.63;;;6.60;55.00;;;;;;5057729;29;20052;-67
2021/03/04 09:01:29;;;;;;;7.63;5.03;;;6.70;54.10;;;;;;5057570;29;20315;-67
2021/03/04 09:04:01;;;;;;;12.90;6.13;;;6.80;54.70;;;;;;5057729;29;20565;-67
2021/03/04 09:06:41;;;;;;;35.83;19.08;;;7.00;54.90;;;;;;5057670;29;20048;-67
2021/03/04 09:09:28;;;;;;;50.92;25.98;;;7.20;54.10;;;;;;5057932;29;20124;-67
2021/03/04 09:11:59;;;;;;;26.42;14.25;;;7.30;54.20;;;;;;5056677;29;20080;-66
2021/03/04 09:14:33;;;;;;;11.30;6.22;;;7.50;53.60;;;;;;5038760;29;20089;-66
2021/03/04 09:17:04;;;;;;;11.50;7.03;;;7.60;51.50;;;;;;5056821;29;20048;-69
2021/03/04 09:19:43;;;;;;;12.63;7.32;;;7.70;52.40;;;;;;5057623;29;20510;-66
2021/03/04 09:22:14;;;;;;;15.10;6.63;;;7.80;53.00;;;;;;5057122;29;20048;-67
2021/03/04 09:24:47;;;;;;;35.42;19.92;;;7.90;52.00;;;;;;5057162;29;20478;-66
2021/03/04 09:27:20;;;;;;;18.88;10.52;;;8.00;49.90;;;;;;5055914;29;20055;-67
2021/03/04 09:29:51;;;;;;;17.85;7.82;;;8.10;47.00;;;;;;5057177;29;20044;-67
2021/03/04 09:32:31;;;;;;;9.65;6.32;;;8.10;48.20;;;;;;5057003;29;20131;-67
2021/03/04 09:35:11;;;;;;;8.85;5.55;;;8.20;49.70;;;;;;5056470;29;20072;-66
2021/03/04 09:37:42;;;;;;;12.77;6.10;;;8.30;44.40;;;;;;5040119;29;20764;-66
2021/03/04 09:40:23;;;;;;;10.93;6.00;;;8.30;46.10;;;;;;5040702;29;20558;-66
2021/03/04 09:42:54;;;;;;;9.48;6.22;;;8.40;45.60;;;;;;5054114;29;20040;-66
2021/03/04 09:45:26;;;;;;;10.15;5.78;;;8.40;47.90;;;;;;5056511;29;20081;-66
2021/03/04 09:47:58;;;;;;;10.02;4.70;;;8.50;47.80;;;;;;5053712;29;20116;-66
2021/03/04 09:50:29;;;;;;;7.20;5.10;;;8.50;46.70;;;;;;5050976;29;20036;-66
2021/03/04 09:53:03;;;;;;;7.45;5.22;;;8.60;44.70;;;;;;5052552;29;20196;-66
2021/03/04 09:55:40;;;;;;;7.97;5.32;;;8.60;45.50;;;;;;5052616;29;20151;-66
2021/03/04 09:58:16;;;;;;;9.55;6.38;;;8.80;46.60;;;;;;5054397;29;20512;-67
2021/03/04 10:00:58;;;;;;;10.25;5.47;;;8.90;46.10;;;;;;5054546;29;20036;-67
2021/03/04 10:03:41;;;;;;;8.13;5.47;;;9.00;46.10;;;;;;5055125;29;20838;-67
2021/03/04 10:06:20;;;;;;;17.90;7.25;;;9.10;45.80;;;;;;5053766;29;20047;-69
2021/03/04 10:08:54;;;;;;;12.23;7.60;;;9.30;46.00;;;;;;5056250;29;20514;-66
2021/03/04 10:11:28;;;;;;;12.60;6.93;;;9.30;45.70;;;;;;5055170;29;20052;-70
2021/03/04 10:14:09;;;;;;;12.95;7.03;;;9.50;44.90;;;;;;5023662;29;20617;-67
2021/03/04 10:16:40;;;;;;;9.80;6.60;;;9.60;44.70;;;;;;5049125;29;20096;-68
2021/03/04 10:19:13;;;;;;;9.27;6.45;;;9.70;44.30;;;;;;5056519;29;20135;-66
2021/03/04 10:21:45;;;;;;;7.50;6.10;;;9.90;43.30;;;;;;5055489;29;20579;-66
2021/03/04 10:24:16;;;;;;;12.93;6.47;;;10.00;39.10;;;;;;5058539;29;21700;-68
2021/03/04 10:26:48;;;;;;;10.15;6.35;;;10.10;38.40;;;;;;5053270;29;20161;-66
2021/03/04 10:29:19;;;;;;;10.13;6.95;;;10.20;37.90;;;;;;5055761;29;20670;-66
2021/03/04 10:31:51;;;;;;;13.98;7.30;;;10.30;39.40;;;;;;5054564;29;20124;-67
2021/03/04 10:34:24;;;;;;;11.60;7.50;;;10.40;39.70;;;;;;5052967;29;20135;-66
2021/03/04 10:36:55;;;;;;;12.65;7.63;;;10.50;39.30;;;;;;5052788;29;20572;-66
2021/03/04 10:39:28;;;;;;;12.20;8.05;;;10.70;38.30;;;;;;5055374;29;20586;-65
2021/03/04 10:42:00;;;;;;;13.00;8.13;;;10.90;39.40;;;;;;5033578;29;20048;-66
2021/03/04 10:44:31;;;;;;;11.10;8.07;;;11.10;38.60;;;;;;5051865;29;20055;-69
2021/03/04 10:47:03;;;;;;;14.38;8.50;;;11.30;37.40;;;;;;5053171;29;20057;-66
2021/03/04 10:49:35;;;;;;;11.65;7.93;;;11.50;38.00;;;;;;5055379;29;20048;-67
2021/03/04 10:52:06;;;;;;;13.13;8.80;;;11.70;37.10;;;;;;5051812;29;20101;-67
2021/03/04 10:54:37;;;;;;;20.30;8.80;;;11.90;35.70;;;;;;5053279;29;20638;-67
2021/03/04 10:57:09;;;;;;;12.55;8.63;;;12.10;37.30;;;;;;5053270;29;20551;-69
2021/03/04 10:59:40;;;;;;;11.43;9.20;;;12.30;35.90;;;;;;5054313;29;20056;-67
2021/03/04 11:02:12;;;;;;;12.55;9.60;;;12.30;35.40;;;;;;5054973;29;20036;-67
2021/03/04 11:04:43;;;;;;;11.98;9.15;;;12.40;35.60;;;;;;5054361;29;20127;-66
2021/03/04 11:07:15;;;;;;;13.90;9.20;;;12.50;33.40;;;;;;5056467;29;20545;-66
2021/03/04 11:09:49;;;;;;;10.82;8.50;;;12.50;33.60;;;;;;5057131;29;20172;-69
2021/03/04 11:12:20;;;;;;;12.95;9.60;;;12.60;33.90;;;;;;5055599;29;20057;-67
2021/03/04 11:14:52;;;;;;;15.68;8.90;;;12.70;33.60;;;;;;5057532;29;20139;-68
2021/03/04 11:17:23;;;;;;;14.10;9.18;;;12.80;33.60;;;;;;5056913;29;20527;-67
2021/03/04 11:19:55;;;;;;;12.25;8.57;;;12.90;34.40;;;;;;5058320;29;20463;-66
2021/03/04 11:22:27;;;;;;;15.52;8.93;;;13.00;33.30;;;;;;5043582;29;20476;-67
2021/03/04 11:24:59;;;;;;;11.57;8.50;;;13.10;33.20;;;;;;5059449;29;20048;-66
2021/03/04 11:27:30;;;;;;;16.65;8.35;;;13.10;32.90;;;;;;5058707;29;20056;-67
2021/03/04 11:30:03;;;;;;;16.10;8.32;;;13.20;32.60;;;;;;5055846;29;20791;-69
2021/03/04 11:32:35;;;;;;;15.20;8.45;;;13.30;30.80;;;;;;5058784;29;20609;-68
2021/03/04 11:35:07;;;;;;;22.35;9.05;;;13.30;32.10;;;;;;5058786;29;20041;-66
2021/03/04 11:37:38;;;;;;;15.68;9.35;;;13.40;31.60;;;;;;5058129;29;20204;-67
2021/03/04 11:40:11;;;;;;;15.45;9.48;;;13.50;32.70;;;;;;5058721;29;20968;-70
2021/03/04 11:42:42;;;;;;;14.48;9.95;;;13.60;32.10;;;;;;5041767;29;20048;-68
2021/03/04 11:45:14;;;;;;;17.85;10.43;;;13.70;32.20;;;;;;5056705;29;20104;-68
2021/03/04 11:47:45;;;;;;;31.35;11.45;;;13.70;32.70;;;;;;5056702;29;20119;-70
2021/03/04 11:50:18;;;;;;;17.85;9.70;;;13.70;32.70;;;;;;5058229;29;20056;-68
2021/03/04 11:52:50;;;;;;;13.60;9.27;;;13.80;32.40;;;;;;5058738;29;20052;-68
2021/03/04 11:55:22;;;;;;;17.73;9.82;;;13.80;31.60;;;;;;5057728;29;24971;-68
2021/03/04 11:57:54;;;;;;;15.07;10.10;;;13.80;31.80;;;;;;5059090;29;20123;-69
2021/03/04 12:00:26;;;;;;;12.05;9.10;;;13.80;31.80;;;;;;5057330;29;20135;-70
2021/03/04 12:02:58;;;;;;;13.23;9.52;;;13.90;32.30;;;;;;5056914;29;20051;-67
2021/03/04 12:05:31;;;;;;;16.55;10.45;;;13.90;31.50;;;;;;5056999;29;20045;-70
2021/03/04 12:08:02;;;;;;;17.38;10.00;;;14.00;32.20;;;;;;5056322;29;20044;-68
2021/03/04 12:10:34;;;;;;;15.38;8.35;;;14.00;32.30;;;;;;5055082;29;20067;-68
2021/03/04 12:13:06;;;;;;;14.18;9.10;;;14.10;32.00;;;;;;5054137;29;20143;-68
2021/03/04 12:15:41;;;;;;;15.18;9.48;;;14.30;30.90;;;;;;5037598;29;20045;-68
2021/03/04 12:18:13;;;;;;;18.90;8.90;;;14.30;31.60;;;;;;5057717;29;20645;-68
2021/03/04 12:20:45;;;;;;;17.00;8.98;;;14.40;30.90;;;;;;5056671;29;20045;-67
2021/03/04 12:23:16;;;;;;;18.27;8.93;;;14.50;31.20;;;;;;5040757;29;20052;-69
2021/03/04 12:25:48;;;;;;;14.10;8.73;;;14.50;30.70;;;;;;5056804;29;20118;-69
2021/03/04 12:28:21;;;;;;;18.50;8.63;;;14.50;29.90;;;;;;5056983;29;20495;-68
2021/03/04 12:30:53;;;;;;;23.48;9.20;;;14.50;29.70;;;;;;5056162;29;20076;-67
2021/03/04 12:33:25;;;;;;;15.40;8.80;;;14.60;30.00;;;;;;5057392;29;20049;-67
2021/03/04 12:35:57;;;;;;;18.17;8.68;;;14.60;29.90;;;;;;5055834;29;20041;-66
2021/03/04 12:38:30;;;;;;;16.73;8.43;;;14.60;28.40;;;;;;5041479;29;20040;-66
2021/03/04 12:41:01;;;;;;;16.08;8.93;;;14.60;29.10;;;;;;5057069;29;20096;-69
2021/03/04 12:43:33;;;;;;;17.75;8.73;;;14.40;29.50;;;;;;5039320;29;20167;-67
2021/03/04 12:46:04;;;;;;;24.50;9.25;;;14.60;28.90;;;;;;5039496;29;20072;-67
2021/03/04 12:48:36;;;;;;;17.38;8.95;;;14.60;28.70;;;;;;5056255;29;20065;-66
2021/03/04 12:51:07;;;;;;;18.80;8.10;;;14.60;28.10;;;;;;5055005;29;20054;-67
2021/03/04 12:53:39;;;;;;;15.02;8.02;;;14.30;27.90;;;;;;5056547;29;20109;-64
2021/03/04 12:56:12;;;;;;;19.58;8.75;;;14.30;27.50;;;;;;5053821;29;20044;-66
2021/03/04 12:58:43;;;;;;;13.20;7.90;;;14.30;28.60;;;;;;5054396;29;20037;-65
2021/03/04 13:01:15;;;;;;;15.00;7.72;;;14.20;28.40;;;;;;5052704;29;20120;-64
2021/03/04 13:03:46;;;;;;;21.60;8.52;;;14.30;28.50;;;;;;5054606;29;20053;-65
2021/03/04 13:06:18;;;;;;;14.90;8.25;;;14.40;28.40;;;;;;5054096;29;20048;-64
2021/03/04 13:09:00;;;;;;;11.25;7.63;;;14.50;28.00;;;;;;5054794;29;20051;-64
2021/03/04 13:11:32;;;;;;;15.13;7.65;;;14.60;28.60;;;;;;5054507;29;21108;-66
2021/03/04 13:14:04;;;;;;;18.55;8.88;;;14.60;28.60;;;;;;5056637;29;20032;-66
2021/03/04 13:16:35;;;;;;;16.17;8.35;;;14.60;29.10;;;;;;5038031;29;20650;-66
2021/03/04 13:19:07;;;;;;;20.05;8.95;;;14.50;29.00;;;;;;5056202;29;20053;-65
2021/03/04 13:21:39;;;;;;;15.10;7.80;;;14.60;29.60;;;;;;5056800;29;20056;-65